»·PEaware :: N66015 KLGB-KMYF

N66015 :: KLGB-KMYF

FLIGHT INFORMATION

Flight Status: Arrived
Operator: Privately registered:
United States
More flights under this callsign
Pilot: Paul H. (32663)
Aircraft: CESSNA 172 SKYHAWK
(C172)
More flights by this aircraft type
Origin: KLGB Long Beach
United States
Destination: KMYF Montgomery
United States
More flights between these airports :: More routes between these airports
Route: VPLDP VPSMP VPOCN VPSPP VPSRT VPSMS
File this flight plan on PilotEdge
Remarks:
Altitude:
(Current/Filed)
5,500ft
Speed:
(Current/Filed)
120kts
Departed: 22-Feb-21 06:38 PM
Arrived: 22-Feb-21 07:28 PM
Distance/Time
Traveled:
79nm/0:50
Distance/Time
To Go:
Arrived

Flight Plot

Page will automatically refresh every two minutes.

Flight plan parsing failed; only flown route is shown


Map Options




Map Legend


Flown Route
Filed Route
Departure Airport
Arrival Airport
Navaid (VOR, NDB)
Fix

Horizontal Profiles

Position Reports

Time Latitude Longitude Heading Altitude Ground
Speed
22-Feb-21 18:25 33.820875 -118.144511 267 43ft 0kts
22-Feb-21 18:26 33.820875 -118.144511 267 43ft 0kts
22-Feb-21 18:27 33.820875 -118.144511 267 43ft 0kts
22-Feb-21 18:28 33.820875 -118.144511 267 43ft 0kts
22-Feb-21 18:29 33.820875 -118.144511 267 43ft 0kts
22-Feb-21 18:30 33.820875 -118.144511 267 43ft 0kts
22-Feb-21 18:31 33.820875 -118.144511 267 43ft 0kts
22-Feb-21 18:32 33.820875 -118.144511 267 43ft 0kts
22-Feb-21 18:33 33.820875 -118.144511 267 43ft 0kts
22-Feb-21 18:34 33.820974 -118.144611 351 43ft 6kts
22-Feb-21 18:35 33.821931 -118.143944 9 43ft 0kts
22-Feb-21 18:36 33.822451 -118.143900 350 43ft 11kts
22-Feb-21 18:37 33.822778 -118.161207 274 451ft 69kts
22-Feb-21 18:38 33.817536 -118.184492 221 1148ft 89kts
22-Feb-21 18:39 33.793997 -118.196125 186 1884ft 96kts
22-Feb-21 18:40 33.777067 -118.169447 114 2480ft 105kts
22-Feb-21 18:41 33.765794 -118.138250 114 3190ft 100kts
22-Feb-21 18:42 33.756402 -118.107906 112 3890ft 92kts
22-Feb-21 18:43 33.749590 -118.079727 106 4586ft 82kts
22-Feb-21 18:44 33.740725 -118.057479 129 5274ft 66kts
22-Feb-21 18:45 33.725143 -118.038651 131 5504ft 103kts
22-Feb-21 18:46 33.702698 -118.011093 132 5493ft 119kts
22-Feb-21 18:47 33.680071 -117.983273 132 5497ft 115kts
22-Feb-21 18:48 33.657842 -117.955979 132 5498ft 113kts
22-Feb-21 18:49 33.635599 -117.928701 132 5502ft 114kts
22-Feb-21 18:50 33.613166 -117.901213 132 5500ft 115kts
22-Feb-21 18:51 33.590707 -117.873759 131 5497ft 114kts
22-Feb-21 18:52 33.568622 -117.846698 131 5500ft 113kts
22-Feb-21 18:53 33.546453 -117.819595 131 5499ft 113kts
22-Feb-21 18:54 33.524331 -117.792574 131 5499ft 114kts
22-Feb-21 18:55 33.502112 -117.765449 131 5499ft 113kts
22-Feb-21 18:56 33.479947 -117.738418 131 5499ft 114kts
22-Feb-21 18:58 33.457729 -117.711344 131 5497ft 113kts
22-Feb-21 18:59 33.435878 -117.684053 131 5500ft 113kts
22-Feb-21 19:00 33.413992 -117.656820 130 5500ft 113kts
22-Feb-21 19:01 33.392031 -117.629521 131 5499ft 113kts
22-Feb-21 19:02 33.369888 -117.602406 132 5499ft 114kts
22-Feb-21 19:03 33.347309 -117.575694 132 5499ft 114kts
22-Feb-21 19:04 33.324835 -117.549104 132 5500ft 114kts
22-Feb-21 19:05 33.302294 -117.522428 132 5499ft 114kts
22-Feb-21 19:06 33.279737 -117.495750 132 5499ft 114kts
22-Feb-21 19:07 33.257247 -117.469174 132 5499ft 114kts
22-Feb-21 19:08 33.234729 -117.442557 133 5499ft 114kts
22-Feb-21 19:09 33.211130 -117.417099 134 5499ft 114kts
22-Feb-21 19:10 33.187597 -117.391538 134 5499ft 114kts
22-Feb-21 19:11 33.164130 -117.366074 134 5499ft 114kts
22-Feb-21 19:12 33.140587 -117.340643 138 5499ft 114kts
22-Feb-21 19:13 33.110972 -117.325662 155 5501ft 116kts
22-Feb-21 19:14 33.080682 -117.312037 155 5500ft 116kts
22-Feb-21 19:15 33.050251 -117.298526 155 5202ft 115kts
22-Feb-21 19:16 33.020236 -117.285248 152 4638ft 116kts
22-Feb-21 19:17 32.989756 -117.271751 152 4053ft 117kts
22-Feb-21 19:18 32.957678 -117.263930 170 3548ft 114kts
22-Feb-21 19:19 32.925968 -117.260522 169 3515ft 119kts
22-Feb-21 19:20 32.892314 -117.257081 168 3506ft 123kts
22-Feb-21 19:21 32.858357 -117.253554 169 3493ft 122kts
22-Feb-21 19:21 32.837033 -117.239954 102 3491ft 110kts
22-Feb-21 19:22 32.829922 -117.204967 103 2909ft 101kts
22-Feb-21 19:24 32.816260 -117.169482 120 1829ft 98kts
22-Feb-21 19:25 32.804415 -117.143841 115 1541ft 84kts
22-Feb-21 19:26 32.793320 -117.122308 97 1409ft 74kts
22-Feb-21 19:26 32.807683 -117.121745 300 979ft 88kts
22-Feb-21 19:27 32.815376 -117.141455 295 422ft 16kts
22-Feb-21 19:28 32.815246 -117.142355 241 423ft 0kts
22-Feb-21 19:30 32.815158 -117.142454 200 423ft 6kts
22-Feb-21 19:31 32.813736 -117.141355 203 422ft 0kts

Navigation Log

Ident Type
Flight plan parsing failed, navigation log unavailable